sensor_id;sensor_type;location;lat;lon;timestamp;pressure;altitude;pressure_sealevel;temperature;humidity
66887;BME280;67239;51.680;5.976;2023-05-09T00:01:43;101660.78;;;15.36;100.00
66887;BME280;67239;51.680;5.976;2023-05-09T00:04:11;101659.94;;;15.35;100.00
66887;BME280;67239;51.680;5.976;2023-05-09T00:06:38;101659.81;;;15.38;100.00
66887;BME280;67239;51.680;5.976;2023-05-09T00:09:05;101655.38;;;15.39;100.00
66887;BME280;67239;51.680;5.976;2023-05-09T00:11:32;101650.06;;;15.39;100.00
66887;BME280;67239;51.680;5.976;2023-05-09T00:13:59;101643.84;;;15.38;100.00
66887;BME280;67239;51.680;5.976;2023-05-09T00:16:28;101637.72;;;15.36;100.00
66887;BME280;67239;51.680;5.976;2023-05-09T00:18:55;101631.56;;;15.36;100.00
66887;BME280;67239;51.680;5.976;2023-05-09T00:21:23;101624.59;;;15.33;100.00
66887;BME280;67239;51.680;5.976;2023-05-09T00:23:50;101634.31;;;15.33;100.00
66887;BME280;67239;51.680;5.976;2023-05-09T00:26:17;101623.78;;;15.31;100.00
66887;BME280;67239;51.680;5.976;2023-05-09T00:28:46;101629.94;;;15.32;100.00
66887;BME280;67239;51.680;5.976;2023-05-09T00:31:13;101625.44;;;15.34;100.00
66887;BME280;67239;51.680;5.976;2023-05-09T00:33:40;101612.22;;;15.32;100.00
66887;BME280;67239;51.680;5.976;2023-05-09T00:36:07;101612.34;;;15.29;100.00
66887;BME280;67239;51.680;5.976;2023-05-09T00:38:34;101612.41;;;15.28;100.00
66887;BME280;67239;51.680;5.976;2023-05-09T00:41:01;101610.66;;;15.27;100.00
66887;BME280;67239;51.680;5.976;2023-05-09T00:43:29;101615.91;;;15.28;100.00
66887;BME280;67239;51.680;5.976;2023-05-09T00:45:56;101615.88;;;15.30;100.00
66887;BME280;67239;51.680;5.976;2023-05-09T00:48:23;101614.94;;;15.31;100.00
66887;BME280;67239;51.680;5.976;2023-05-09T00:50:50;101614.00;;;15.32;100.00
66887;BME280;67239;51.680;5.976;2023-05-09T00:53:19;101609.50;;;15.34;100.00
66887;BME280;67239;51.680;5.976;2023-05-09T00:55:47;101607.66;;;15.36;100.00
66887;BME280;67239;51.680;5.976;2023-05-09T00:58:14;101600.50;;;15.38;100.00
66887;BME280;67239;51.680;5.976;2023-05-09T01:00:42;101599.59;;;15.39;100.00
66887;BME280;67239;51.680;5.976;2023-05-09T01:03:09;101603.19;;;15.36;100.00
66887;BME280;67239;51.680;5.976;2023-05-09T01:05:44;101604.94;;;15.37;100.00
66887;BME280;67239;51.680;5.976;2023-05-09T01:11:24;101585.41;;;15.38;100.00
66887;BME280;67239;51.680;5.976;2023-05-09T01:22:32;101565.22;;;15.34;100.00
66887;BME280;67239;51.680;5.976;2023-05-09T01:26:09;101565.16;;;15.36;100.00
66887;BME280;67239;51.680;5.976;2023-05-09T01:28:33;101561.69;;;15.34;100.00
66887;BME280;67239;51.680;5.976;2023-05-09T01:31:13;101560.03;;;15.31;100.00
66887;BME280;67239;51.680;5.976;2023-05-09T01:33:44;101559.09;;;15.32;100.00
66887;BME280;67239;51.680;5.976;2023-05-09T01:36:16;101557.28;;;15.33;100.00
66887;BME280;67239;51.680;5.976;2023-05-09T01:38:49;101551.13;;;15.32;100.00
66887;BME280;67239;51.680;5.976;2023-05-09T01:41:18;101559.91;;;15.34;100.00
66887;BME280;67239;51.680;5.976;2023-05-09T01:43:48;101557.28;;;15.33;100.00
66887;BME280;67239;51.680;5.976;2023-05-09T01:46:18;101557.25;;;15.34;100.00
66887;BME280;67239;51.680;5.976;2023-05-09T01:48:48;101556.38;;;15.34;100.00
66887;BME280;67239;51.680;5.976;2023-05-09T01:51:17;101555.56;;;15.32;100.00
66887;BME280;67239;51.680;5.976;2023-05-09T01:53:47;101550.25;;;15.32;100.00
66887;BME280;67239;51.680;5.976;2023-05-09T01:56:17;101554.72;;;15.31;100.00
66887;BME280;67239;51.680;5.976;2023-05-09T01:58:49;101547.66;;;15.30;100.00
66887;BME280;67239;51.680;5.976;2023-05-09T02:01:17;101544.16;;;15.30;100.00
66887;BME280;67239;51.680;5.976;2023-05-09T02:03:47;101543.28;;;15.29;100.00
66887;BME280;67239;51.680;5.976;2023-05-09T02:06:19;101538.88;;;15.28;100.00
66887;BME280;67239;51.680;5.976;2023-05-09T02:08:49;101538.88;;;15.28;100.00
66887;BME280;67239;51.680;5.976;2023-05-09T02:11:16;101529.13;;;15.29;100.00
66887;BME280;67239;51.680;5.976;2023-05-09T02:13:43;101527.34;;;15.29;100.00
66887;BME280;67239;51.680;5.976;2023-05-09T02:16:11;101528.31;;;15.27;100.00
66887;BME280;67239;51.680;5.976;2023-05-09T02:18:38;101529.25;;;15.26;100.00
66887;BME280;67239;51.680;5.976;2023-05-09T02:21:05;101523.09;;;15.25;100.00
66887;BME280;67239;51.680;5.976;2023-05-09T02:23:33;101531.06;;;15.25;100.00
66887;BME280;67239;51.680;5.976;2023-05-09T02:26:01;101526.66;;;15.24;100.00
66887;BME280;67239;51.680;5.976;2023-05-09T02:28:29;101536.41;;;15.24;100.00
66887;BME280;67239;51.680;5.976;2023-05-09T02:30:59;101529.34;;;15.22;100.00
66887;BME280;67239;51.680;5.976;2023-05-09T02:33:33;101529.44;;;15.21;100.00
66887;BME280;67239;51.680;5.976;2023-05-09T02:36:04;101532.94;;;15.21;100.00
66887;BME280;67239;51.680;5.976;2023-05-09T02:38:32;101518.88;;;15.19;100.00
66887;BME280;67239;51.680;5.976;2023-05-09T02:41:01;101525.97;;;15.19;100.00
66887;BME280;67239;51.680;5.976;2023-05-09T02:43:28;101522.50;;;15.17;100.00
66887;BME280;67239;51.680;5.976;2023-05-09T02:45:55;101531.34;;;15.17;100.00
66887;BME280;67239;51.680;5.976;2023-05-09T02:48:22;101515.41;;;15.17;100.00
66887;BME280;67239;51.680;5.976;2023-05-09T02:50:50;101515.50;;;15.14;100.00
66887;BME280;67239;51.680;5.976;2023-05-09T02:53:17;101523.44;;;15.16;100.00
66887;BME280;67239;51.680;5.976;2023-05-09T02:55:44;101519.06;;;15.15;100.00
66887;BME280;67239;51.680;5.976;2023-05-09T02:58:11;101517.34;;;15.12;100.00
66887;BME280;67239;51.680;5.976;2023-05-09T03:00:41;101509.47;;;15.11;100.00
66887;BME280;67239;51.680;5.976;2023-05-09T03:03:10;101506.88;;;15.09;100.00
66887;BME280;67239;51.680;5.976;2023-05-09T03:05:37;101508.72;;;15.07;100.00
66887;BME280;67239;51.680;5.976;2023-05-09T03:08:04;101506.06;;;15.07;100.00
66887;BME280;67239;51.680;5.976;2023-05-09T03:10:33;101499.94;;;15.05;100.00
66887;BME280;67239;51.680;5.976;2023-05-09T03:13:00;101502.66;;;15.03;100.00
66887;BME280;67239;51.680;5.976;2023-05-09T03:15:27;101494.81;;;15.00;100.00
66887;BME280;67239;51.680;5.976;2023-05-09T03:17:58;101489.56;;;14.99;100.00
66887;BME280;67239;51.680;5.976;2023-05-09T03:20:25;101500.19;;;14.99;100.00
66887;BME280;67239;51.680;5.976;2023-05-09T03:22:53;101494.00;;;14.98;100.00
66887;BME280;67239;51.680;5.976;2023-05-09T03:25:20;101490.41;;;14.99;100.00
66887;BME280;67239;51.680;5.976;2023-05-09T03:27:48;101489.59;;;14.97;100.00
66887;BME280;67239;51.680;5.976;2023-05-09T03:30:15;101485.19;;;14.98;100.00
66887;BME280;67239;51.680;5.976;2023-05-09T03:32:45;101482.53;;;14.98;100.00
66887;BME280;67239;51.680;5.976;2023-05-09T03:35:12;101482.47;;;14.99;100.00
66887;BME280;67239;51.680;5.976;2023-05-09T03:37:39;101480.72;;;14.98;100.00
66887;BME280;67239;51.680;5.976;2023-05-09T03:40:07;101478.94;;;14.99;100.00
66887;BME280;67239;51.680;5.976;2023-05-09T03:42:41;101471.03;;;14.97;100.00
66887;BME280;67239;51.680;5.976;2023-05-09T03:45:09;101471.91;;;14.98;100.00
66887;BME280;67239;51.680;5.976;2023-05-09T03:47:36;101463.06;;;14.97;100.00
66887;BME280;67239;51.680;5.976;2023-05-09T03:50:05;101463.06;;;14.97;100.00
66887;BME280;67239;51.680;5.976;2023-05-09T03:52:33;101463.06;;;14.97;100.00
66887;BME280;67239;51.680;5.976;2023-05-09T03:55:01;101469.28;;;14.96;100.00
66887;BME280;67239;51.680;5.976;2023-05-09T03:57:34;101459.56;;;14.97;100.00
66887;BME280;67239;51.680;5.976;2023-05-09T04:00:04;101452.50;;;14.96;100.00
66887;BME280;67239;51.680;5.976;2023-05-09T04:02:40;101456.09;;;14.95;100.00
66887;BME280;67239;51.680;5.976;2023-05-09T04:05:15;101453.38;;;14.96;100.00
66887;BME280;67239;51.680;5.976;2023-05-09T04:07:44;101456.09;;;14.95;100.00
66887;BME280;67239;51.680;5.976;2023-05-09T04:10:11;101449.97;;;14.93;100.00
66887;BME280;67239;51.680;5.976;2023-05-09T04:12:38;101449.97;;;14.93;100.00
66887;BME280;67239;51.680;5.976;2023-05-09T04:15:06;101453.50;;;14.93;100.00
66887;BME280;67239;51.680;5.976;2023-05-09T04:17:34;101454.44;;;14.92;100.00
66887;BME280;67239;51.680;5.976;2023-05-09T04:20:01;101450.84;;;14.93;100.00
66887;BME280;67239;51.680;5.976;2023-05-09T04:22:29;101454.44;;;14.92;100.00
66887;BME280;67239;51.680;5.976;2023-05-09T04:24:56;101447.38;;;14.91;100.00
66887;BME280;67239;51.680;5.976;2023-05-09T04:27:23;101447.38;;;14.91;100.00
66887;BME280;67239;51.680;5.976;2023-05-09T04:29:50;101445.59;;;14.91;100.00
66887;BME280;67239;51.680;5.976;2023-05-09T04:32:19;101449.13;;;14.92;100.00
66887;BME280;67239;51.680;5.976;2023-05-09T04:34:48;101449.03;;;14.94;100.00
66887;BME280;67239;51.680;5.976;2023-05-09T04:37:20;101442.72;;;14.98;100.00
66887;BME280;67239;51.680;5.976;2023-05-09T04:39:47;101452.41;;;14.99;100.00
66887;BME280;67239;51.680;5.976;2023-05-09T04:42:23;101431.16;;;14.99;100.00
66887;BME280;67239;51.680;5.976;2023-05-09T04:44:51;101440.91;;;14.98;100.00
66887;BME280;67239;51.680;5.976;2023-05-09T04:47:20;101435.56;;;15.00;100.00
66887;BME280;67239;51.680;5.976;2023-05-09T04:49:47;101430.25;;;15.00;100.00
66887;BME280;67239;51.680;5.976;2023-05-09T04:52:15;101427.50;;;15.01;100.00
66887;BME280;67239;51.680;5.976;2023-05-09T04:54:42;101429.25;;;15.02;100.00
66887;BME280;67239;51.680;5.976;2023-05-09T04:57:11;101423.00;;;15.03;100.00
66887;BME280;67239;51.680;5.976;2023-05-09T04:59:47;101418.50;;;15.05;100.00
66887;BME280;67239;51.680;5.976;2023-05-09T05:02:14;101420.19;;;15.08;100.00
66887;BME280;67239;51.680;5.976;2023-05-09T05:04:42;101413.88;;;15.11;100.00
66887;BME280;67239;51.680;5.976;2023-05-09T05:07:09;101414.69;;;15.13;100.00
66887;BME280;67239;51.680;5.976;2023-05-09T05:09:37;101407.53;;;15.15;100.00
66887;BME280;67239;51.680;5.976;2023-05-09T05:12:04;101407.34;;;15.19;100.00
66887;BME280;67239;51.680;5.976;2023-05-09T05:14:35;101403.69;;;15.22;100.00
66887;BME280;67239;51.680;5.976;2023-05-09T05:17:04;101406.88;;;15.30;100.00
66887;BME280;67239;51.680;5.976;2023-05-09T05:19:32;101392.22;;;15.42;100.00
66887;BME280;67239;51.680;5.976;2023-05-09T05:22:01;101390.69;;;15.57;100.00
66887;BME280;67239;51.680;5.976;2023-05-09T05:24:28;101388.44;;;15.68;99.70
66887;BME280;67239;51.680;5.976;2023-05-09T05:26:55;101397.72;;;15.80;99.42
66887;BME280;67239;51.680;5.976;2023-05-09T05:29:23;101390.16;;;15.92;99.12
66887;BME280;67239;51.680;5.976;2023-05-09T05:31:50;101393.19;;;16.03;97.87
66887;BME280;67239;51.680;5.976;2023-05-09T05:34:19;101380.22;;;16.16;97.32
66887;BME280;67239;51.680;5.976;2023-05-09T05:36:46;101379.63;;;16.28;95.62
66887;BME280;67239;51.680;5.976;2023-05-09T05:39:13;101379.97;;;16.41;94.89
66887;BME280;67239;51.680;5.976;2023-05-09T05:41:41;101377.44;;;16.57;94.22
66887;BME280;67239;51.680;5.976;2023-05-09T05:44:09;101368.81;;;16.71;93.75
66887;BME280;67239;51.680;5.976;2023-05-09T05:46:37;101367.56;;;16.79;93.41
66887;BME280;67239;51.680;5.976;2023-05-09T05:49:04;101366.50;;;16.83;93.07
66887;BME280;67239;51.680;5.976;2023-05-09T05:51:32;101363.84;;;16.83;93.02
66887;BME280;67239;51.680;5.976;2023-05-09T05:54:01;101357.72;;;16.81;92.29
66887;BME280;67239;51.680;5.976;2023-05-09T05:56:29;101351.69;;;16.77;91.81
66887;BME280;67239;51.680;5.976;2023-05-09T05:58:57;101352.53;;;16.77;92.05
66887;BME280;67239;51.680;5.976;2023-05-09T06:01:24;101349.06;;;16.75;91.13
66887;BME280;67239;51.680;5.976;2023-05-09T06:03:51;101338.59;;;16.72;91.16
66887;BME280;67239;51.680;5.976;2023-05-09T06:06:25;101343.81;;;16.74;91.14
66887;BME280;67239;51.680;5.976;2023-05-09T06:08:53;101348.13;;;16.76;90.98
66887;BME280;67239;51.680;5.976;2023-05-09T06:11:22;101342.44;;;16.84;91.51
66887;BME280;67239;51.680;5.976;2023-05-09T06:13:49;101336.81;;;16.90;90.86
66887;BME280;67239;51.680;5.976;2023-05-09T06:16:16;101334.13;;;16.90;90.28
66887;BME280;67239;51.680;5.976;2023-05-09T06:18:48;101325.44;;;16.87;89.75
66887;BME280;67239;51.680;5.976;2023-05-09T06:21:15;101326.31;;;16.87;89.75
66887;BME280;67239;51.680;5.976;2023-05-09T06:23:42;101323.66;;;16.87;89.21
66887;BME280;67239;51.680;5.976;2023-05-09T06:26:29;101331.44;;;16.92;90.11
66887;BME280;67239;51.680;5.976;2023-05-09T06:28:57;101321.50;;;16.96;89.51
66887;BME280;67239;51.680;5.976;2023-05-09T06:31:24;101314.94;;;17.03;89.44
66887;BME280;67239;51.680;5.976;2023-05-09T06:33:52;101316.09;;;17.15;89.17
66887;BME280;67239;51.680;5.976;2023-05-09T06:36:19;101309.31;;;17.27;88.87
66887;BME280;67239;51.680;5.976;2023-05-09T06:38:46;101313.13;;;17.38;88.25
66887;BME280;67239;51.680;5.976;2023-05-09T06:41:13;101309.22;;;17.46;87.60
66887;BME280;67239;51.680;5.976;2023-05-09T06:43:40;101304.38;;;17.54;87.99
66887;BME280;67239;51.680;5.976;2023-05-09T06:46:07;101311.78;;;17.65;87.10
66887;BME280;67239;51.680;5.976;2023-05-09T06:48:34;101297.97;;;17.74;86.09
66887;BME280;67239;51.680;5.976;2023-05-09T06:51:01;101295.69;;;17.84;85.99
66887;BME280;67239;51.680;5.976;2023-05-09T06:53:28;101295.09;;;17.95;86.20
66887;BME280;67239;51.680;5.976;2023-05-09T06:55:55;101288.25;;;18.07;84.38
66887;BME280;67239;51.680;5.976;2023-05-09T06:58:23;101291.28;;;18.16;83.73
66887;BME280;67239;51.680;5.976;2023-05-09T07:00:50;101286.22;;;18.28;83.85
66887;BME280;67239;51.680;5.976;2023-05-09T07:03:17;101281.91;;;18.41;84.02
66887;BME280;67239;51.680;5.976;2023-05-09T07:05:44;101284.47;;;18.59;82.17
66887;BME280;67239;51.680;5.976;2023-05-09T07:08:11;101278.25;;;18.74;81.99
66887;BME280;67239;51.680;5.976;2023-05-09T07:10:38;101274.53;;;18.93;81.92
66887;BME280;67239;51.680;5.976;2023-05-09T07:13:06;101271.25;;;19.04;80.05
66887;BME280;67239;51.680;5.976;2023-05-09T07:15:33;101271.63;;;19.12;78.93
66887;BME280;67239;51.680;5.976;2023-05-09T07:18:08;101265.91;;;19.18;79.49
66887;BME280;67239;51.680;5.976;2023-05-09T07:20:35;101260.13;;;19.26;78.98
66887;BME280;67239;51.680;5.976;2023-05-09T07:23:03;101262.44;;;19.32;78.02
66887;BME280;67239;51.680;5.976;2023-05-09T07:25:30;101264.34;;;19.30;77.72
66887;BME280;67239;51.680;5.976;2023-05-09T07:27:57;101260.22;;;19.24;77.16
66887;BME280;67239;51.680;5.976;2023-05-09T07:30:24;101252.56;;;19.18;77.09
66887;BME280;67239;51.680;5.976;2023-05-09T07:32:51;101248.63;;;19.09;76.94
66887;BME280;67239;51.680;5.976;2023-05-09T07:35:19;101249.88;;;19.04;76.92
66887;BME280;67239;51.680;5.976;2023-05-09T07:37:46;101250.81;;;19.03;77.79
66887;BME280;67239;51.680;5.976;2023-05-09T07:40:13;101243.66;;;19.03;77.58
66887;BME280;67239;51.680;5.976;2023-05-09T07:42:41;101239.00;;;19.07;76.85
66887;BME280;67239;51.680;5.976;2023-05-09T07:45:15;101242.53;;;19.07;76.47
66887;BME280;67239;51.680;5.976;2023-05-09T07:47:43;101234.41;;;19.09;76.53
66887;BME280;67239;51.680;5.976;2023-05-09T07:50:10;101229.66;;;19.14;76.52
66887;BME280;67239;51.680;5.976;2023-05-09T07:52:37;101227.38;;;19.22;77.05
66887;BME280;67239;51.680;5.976;2023-05-09T07:55:04;101218.63;;;19.35;76.80
66887;BME280;67239;51.680;5.976;2023-05-09T07:57:32;101224.22;;;19.45;76.54
66887;BME280;67239;51.680;5.976;2023-05-09T07:59:59;101218.25;;;19.55;76.37
66887;BME280;67239;51.680;5.976;2023-05-09T08:02:26;101217.66;;;19.65;75.43
66887;BME280;67239;51.680;5.976;2023-05-09T08:04:53;101218.91;;;19.59;75.46
66887;BME280;67239;51.680;5.976;2023-05-09T08:07:20;101207.91;;;19.49;75.97
66887;BME280;67239;51.680;5.976;2023-05-09T08:09:47;101206.97;;;19.50;76.38
66887;BME280;67239;51.680;5.976;2023-05-09T08:12:14;101207.53;;;19.55;76.66
66887;BME280;67239;51.680;5.976;2023-05-09T08:14:41;101199.41;;;19.57;75.79
66887;BME280;67239;51.680;5.976;2023-05-09T08:17:08;101203.34;;;19.51;75.54
66887;BME280;67239;51.680;5.976;2023-05-09T08:19:35;101198.38;;;19.45;74.49
66887;BME280;67239;51.680;5.976;2023-05-09T08:22:02;101195.22;;;19.38;74.94
66887;BME280;67239;51.680;5.976;2023-05-09T08:24:29;101188.34;;;19.34;75.01
66887;BME280;67239;51.680;5.976;2023-05-09T08:26:58;101186.63;;;19.33;75.14
66887;BME280;67239;51.680;5.976;2023-05-09T08:29:25;101180.81;;;19.27;75.34
66887;BME280;67239;51.680;5.976;2023-05-09T08:31:52;101181.94;;;19.22;75.42
66887;BME280;67239;51.680;5.976;2023-05-09T08:34:19;101178.78;;;19.16;75.46
66887;BME280;67239;51.680;5.976;2023-05-09T08:36:47;101180.59;;;19.15;75.70
66887;BME280;67239;51.680;5.976;2023-05-09T08:39:14;101174.78;;;19.23;75.74
66887;BME280;67239;51.680;5.976;2023-05-09T08:41:41;101175.75;;;19.22;75.81
66887;BME280;67239;51.680;5.976;2023-05-09T08:44:09;101174.88;;;19.21;73.95
66887;BME280;67239;51.680;5.976;2023-05-09T08:46:38;101167.91;;;19.19;74.93
66887;BME280;67239;51.680;5.976;2023-05-09T08:49:09;101167.44;;;19.12;74.97
66887;BME280;67239;51.680;5.976;2023-05-09T08:51:37;101161.03;;;19.15;75.39
66887;BME280;67239;51.680;5.976;2023-05-09T08:54:05;101163.63;;;19.16;75.51
66887;BME280;67239;51.680;5.976;2023-05-09T08:56:34;101163.13;;;19.09;75.38
66887;BME280;67239;51.680;5.976;2023-05-09T08:59:02;101159.38;;;18.98;75.01
66887;BME280;67239;51.680;5.976;2023-05-09T09:01:33;101162.78;;;18.85;74.97
66887;BME280;67239;51.680;5.976;2023-05-09T09:04:05;101166.19;;;18.73;75.89
66887;BME280;67239;51.680;5.976;2023-05-09T09:06:34;101164.75;;;18.67;75.23
66887;BME280;67239;51.680;5.976;2023-05-09T09:09:02;101168.13;;;18.55;75.31
66887;BME280;67239;51.680;5.976;2023-05-09T09:11:35;101163.16;;;18.49;75.67
66887;BME280;67239;51.680;5.976;2023-05-09T09:14:12;101158.78;;;18.47;75.40
66887;BME280;67239;51.680;5.976;2023-05-09T09:16:46;101165.28;;;18.58;74.97
66887;BME280;67239;51.680;5.976;2023-05-09T09:19:16;101161.53;;;18.76;74.70
66887;BME280;67239;51.680;5.976;2023-05-09T09:21:45;101151.19;;;19.01;73.44
66887;BME280;67239;51.680;5.976;2023-05-09T09:24:13;101152.00;;;19.17;73.41
66887;BME280;67239;51.680;5.976;2023-05-09T09:26:46;101152.06;;;19.30;72.28
66887;BME280;67239;51.680;5.976;2023-05-09T09:29:16;101138.78;;;19.43;72.72
66887;BME280;67239;51.680;5.976;2023-05-09T09:31:45;101147.78;;;19.57;72.24
66887;BME280;67239;51.680;5.976;2023-05-09T09:34:20;101142.13;;;19.61;71.84
66887;BME280;67239;51.680;5.976;2023-05-09T09:36:48;101137.63;;;19.62;71.77
66887;BME280;67239;51.680;5.976;2023-05-09T09:39:16;101139.16;;;19.66;72.05
66887;BME280;67239;51.680;5.976;2023-05-09T09:41:43;101141.16;;;19.62;71.54
66887;BME280;67239;51.680;5.976;2023-05-09T09:44:15;101134.75;;;19.65;71.72
66887;BME280;67239;51.680;5.976;2023-05-09T09:46:48;101130.38;;;19.64;68.81
66887;BME280;67239;51.680;5.976;2023-05-09T09:49:24;101128.41;;;19.53;69.05
66887;BME280;67239;51.680;5.976;2023-05-09T09:51:57;101126.50;;;19.40;69.79
66887;BME280;67239;51.680;5.976;2023-05-09T09:54:25;101126.00;;;19.34;70.19
66887;BME280;67239;51.680;5.976;2023-05-09T09:56:53;101117.13;;;19.33;70.99
66887;BME280;67239;51.680;5.976;2023-05-09T09:59:24;101106.81;;;19.42;70.22
66887;BME280;67239;51.680;5.976;2023-05-09T10:04:36;101108.97;;;19.64;70.10
66887;BME280;67239;51.680;5.976;2023-05-09T10:07:06;101094.81;;;19.76;69.60
66887;BME280;67239;51.680;5.976;2023-05-09T10:09:40;101107.44;;;19.89;68.69
66887;BME280;67239;51.680;5.976;2023-05-09T10:12:09;101112.25;;;19.96;68.44
66887;BME280;67239;51.680;5.976;2023-05-09T10:14:40;101107.81;;;20.10;67.38
66887;BME280;67239;51.680;5.976;2023-05-09T10:17:14;101104.72;;;20.16;68.50
66887;BME280;67239;51.680;5.976;2023-05-09T10:19:45;101107.31;;;20.17;68.40
66887;BME280;67239;51.680;5.976;2023-05-09T10:22:16;101105.03;;;20.11;68.33
66887;BME280;67239;51.680;5.976;2023-05-09T10:24:47;101102.19;;;20.00;68.14
66887;BME280;67239;51.680;5.976;2023-05-09T10:27:26;101102.41;;;19.97;68.31
66887;BME280;67239;51.680;5.976;2023-05-09T10:30:17;101102.81;;;19.91;67.66
66887;BME280;67239;51.680;5.976;2023-05-09T10:35:17;101094.06;;;19.74;69.23
66887;BME280;67239;51.680;5.976;2023-05-09T10:37:46;101086.97;;;19.73;69.89
66887;BME280;67239;51.680;5.976;2023-05-09T10:40:14;101085.19;;;19.74;69.16
66887;BME280;67239;51.680;5.976;2023-05-09T10:42:42;101078.75;;;19.76;69.57
66887;BME280;67239;51.680;5.976;2023-05-09T10:45:10;101076.94;;;19.77;68.62
66887;BME280;67239;51.680;5.976;2023-05-09T10:47:40;101079.16;;;19.70;69.12
66887;BME280;67239;51.680;5.976;2023-05-09T10:50:10;101073.16;;;19.66;68.89
66887;BME280;67239;51.680;5.976;2023-05-09T10:53:07;101074.16;;;19.51;69.53
66887;BME280;67239;51.680;5.976;2023-05-09T10:55:50;101070.66;;;19.36;69.96
66887;BME280;67239;51.680;5.976;2023-05-09T10:58:22;101074.88;;;19.26;71.02
66887;BME280;67239;51.680;5.976;2023-05-09T11:00:56;101073.06;;;19.12;71.46
66887;BME280;67239;51.680;5.976;2023-05-09T11:03:27;101073.66;;;19.02;72.30
66887;BME280;67239;51.680;5.976;2023-05-09T11:05:56;101075.72;;;18.97;73.45
66887;BME280;67239;51.680;5.976;2023-05-09T11:08:30;101072.66;;;18.89;73.71
66887;BME280;67239;51.680;5.976;2023-05-09T11:11:05;101072.06;;;18.69;73.88
66887;BME280;67239;51.680;5.976;2023-05-09T11:13:35;101073.19;;;18.51;74.65
66887;BME280;67239;51.680;5.976;2023-05-09T11:16:07;101079.78;;;18.29;75.02
66887;BME280;67239;51.680;5.976;2023-05-09T11:18:48;101070.53;;;18.04;75.90
66887;BME280;67239;51.680;5.976;2023-05-09T11:21:18;101065.47;;;17.83;77.20
66887;BME280;67239;51.680;5.976;2023-05-09T11:23:47;101063.00;;;17.64;77.77
66887;BME280;67239;51.680;5.976;2023-05-09T11:26:14;101061.09;;;17.50;78.61
66887;BME280;67239;51.680;5.976;2023-05-09T11:28:50;101058.94;;;17.41;79.69
66887;BME280;67239;51.680;5.976;2023-05-09T11:31:19;101056.75;;;17.33;80.52
66887;BME280;67239;51.680;5.976;2023-05-09T11:33:49;101058.63;;;17.31;80.82
66887;BME280;67239;51.680;5.976;2023-05-09T11:36:27;101049.34;;;17.38;80.89
66887;BME280;67239;51.680;5.976;2023-05-09T11:41:46;101036.63;;;17.44;80.96
66887;BME280;67239;51.680;5.976;2023-05-09T11:44:15;101035.69;;;17.45;80.13
66887;BME280;67239;51.680;5.976;2023-05-09T11:46:48;101028.63;;;17.44;80.58
66887;BME280;67239;51.680;5.976;2023-05-09T11:49:15;101029.63;;;17.41;80.44
66887;BME280;67239;51.680;5.976;2023-05-09T11:51:43;101031.38;;;17.42;80.97
66887;BME280;67239;51.680;5.976;2023-05-09T11:54:10;101024.25;;;17.43;81.18
66887;BME280;67239;51.680;5.976;2023-05-09T11:56:40;101022.53;;;17.42;80.71
66887;BME280;67239;51.680;5.976;2023-05-09T11:59:07;101006.78;;;17.37;80.76
66887;BME280;67239;51.680;5.976;2023-05-09T12:01:36;101013.50;;;17.28;81.44
66887;BME280;67239;51.680;5.976;2023-05-09T12:04:05;101016.50;;;17.22;81.21
66887;BME280;67239;51.680;5.976;2023-05-09T12:06:33;101006.00;;;17.19;81.81
66887;BME280;67239;51.680;5.976;2023-05-09T12:09:01;101004.28;;;17.18;81.19
66887;BME280;67239;51.680;5.976;2023-05-09T12:11:28;101006.44;;;17.11;81.55
66887;BME280;67239;51.680;5.976;2023-05-09T12:13:58;101000.41;;;17.07;82.28
66887;BME280;67239;51.680;5.976;2023-05-09T12:16:25;100991.38;;;17.10;83.10
66887;BME280;67239;51.680;5.976;2023-05-09T12:18:52;100994.41;;;17.20;83.70
66887;BME280;67239;51.680;5.976;2023-05-09T12:21:20;101002.84;;;17.28;83.70
66887;BME280;67239;51.680;5.976;2023-05-09T12:23:47;100997.25;;;17.33;83.99
66887;BME280;67239;51.680;5.976;2023-05-09T12:26:20;100992.84;;;17.32;83.75
66887;BME280;67239;51.680;5.976;2023-05-09T12:28:48;100986.16;;;17.25;84.05
66887;BME280;67239;51.680;5.976;2023-05-09T12:31:16;100991.59;;;17.23;84.48
66887;BME280;67239;51.680;5.976;2023-05-09T12:33:44;100990.13;;;17.17;85.30
66887;BME280;67239;51.680;5.976;2023-05-09T12:36:12;100983.06;;;17.16;85.73
66887;BME280;67239;51.680;5.976;2023-05-09T12:38:39;100983.91;;;17.17;85.52
66887;BME280;67239;51.680;5.976;2023-05-09T12:41:08;100980.84;;;17.25;86.22
66887;BME280;67239;51.680;5.976;2023-05-09T12:43:40;100979.22;;;17.22;86.06
66887;BME280;67239;51.680;5.976;2023-05-09T12:46:09;100977.66;;;17.18;87.02
66887;BME280;67239;51.680;5.976;2023-05-09T12:48:37;100973.53;;;17.12;86.54
66887;BME280;67239;51.680;5.976;2023-05-09T12:51:06;100968.19;;;17.12;87.13
66887;BME280;67239;51.680;5.976;2023-05-09T12:53:40;100971.22;;;17.06;86.98
66887;BME280;67239;51.680;5.976;2023-05-09T12:56:16;100970.59;;;17.01;87.33
66887;BME280;67239;51.680;5.976;2023-05-09T12:58:54;100964.69;;;16.96;86.62
66887;BME280;67239;51.680;5.976;2023-05-09T13:01:28;100963.03;;;16.93;87.25
66887;BME280;67239;51.680;5.976;2023-05-09T13:04:03;100961.13;;;16.95;87.99
66887;BME280;67239;51.680;5.976;2023-05-09T13:06:32;100962.00;;;16.96;88.83
66887;BME280;67239;51.680;5.976;2023-05-09T13:09:02;100963.66;;;16.98;89.11
66887;BME280;67239;51.680;5.976;2023-05-09T13:11:32;100960.34;;;16.93;88.83
66887;BME280;67239;51.680;5.976;2023-05-09T13:13:59;100957.94;;;16.88;89.66
66887;BME280;67239;51.680;5.976;2023-05-09T13:16:29;100954.66;;;16.83;90.05